TAP644 LPPT-EBBR
Flight info
| Callsign | TAP644 |
|---|---|
| Flight time | N/A |
| Altitude | 36000 |
| Route | IXIDA DCT TOSDI N745 ZMR N873 DELOG DCT YURZI DCT OLEBA UN873 BAZOS DCT BELDI DCT VEKIN/N0396F260 Z173 ARVOL |
| Aircraft | A320/M-SDE3FGHIRWY/LB1 |
Departure
| Time | 2026-05-07 17:13 |
|---|---|
| Airport | Lisbon Humberto Delgado Airport (LPPT) |
Arrival
| Time | N/A |
|---|---|
| Airport | Brussels Airport (EBBR) |
| Time | Latitude | Longitude | Altitude | Speed | Heading |
|---|---|---|---|---|---|
| 2026-05-07 16:51 | 38.76529 | -9.13384 | 354 ft | 0 kts | 73° |
| 2026-05-07 16:59 | 38.76529 | -9.13385 | 345 ft | 0 kts | 73° |
| 2026-05-07 17:04 | 38.76525 | -9.13401 | 349 ft | 4 kts | 66° |
| 2026-05-07 17:04 | 38.76511 | -9.13428 | 352 ft | 4 kts | 31° |
| 2026-05-07 17:04 | 38.76507 | -9.13431 | 353 ft | 3 kts | 22° |
| 2026-05-07 17:05 | 38.76498 | -9.13436 | 350 ft | 0 kts | 4° |
| 2026-05-07 17:07 | 38.76516 | -9.13439 | 348 ft | 7 kts | 342° |
| 2026-05-07 17:08 | 38.76565 | -9.13461 | 354 ft | 9 kts | 343° |
| 2026-05-07 17:08 | 38.76625 | -9.13489 | 348 ft | 10 kts | 324° |
| 2026-05-07 17:08 | 38.76637 | -9.13587 | 348 ft | 13 kts | 259° |
| 2026-05-07 17:08 | 38.76617 | -9.13707 | 348 ft | 14 kts | 257° |
| 2026-05-07 17:09 | 38.76595 | -9.13837 | 349 ft | 16 kts | 259° |
| 2026-05-07 17:09 | 38.76575 | -9.13972 | 346 ft | 15 kts | 257° |
| 2026-05-07 17:09 | 38.76544 | -9.14093 | 355 ft | 13 kts | 232° |
| 2026-05-07 17:09 | 38.76503 | -9.14198 | 342 ft | 16 kts | 284° |
| 2026-05-07 17:10 | 38.76534 | -9.14294 | 335 ft | 0 kts | 293° |
| 2026-05-07 17:11 | 38.76543 | -9.14321 | 336 ft | 12 kts | 294° |
| 2026-05-07 17:11 | 38.76601 | -9.14406 | 335 ft | 12 kts | 358° |
| 2026-05-07 17:11 | 38.76628 | -9.14397 | 334 ft | 0 kts | 20° |
| 2026-05-07 17:12 | 38.76780 | -9.14321 | 335 ft | 58 kts | 22° |
| 2026-05-07 17:12 | 38.77352 | -9.14009 | 363 ft | 117 kts | 23° |
| 2026-05-07 17:12 | 38.78257 | -9.13518 | 377 ft | 162 kts | 29° |
| 2026-05-07 17:13 | 38.79320 | -9.12912 | 788 ft | 174 kts | 23° |
| 2026-05-07 17:13 | 38.80442 | -9.12287 | 1439 ft | 177 kts | 22° |
| 2026-05-07 17:13 | 38.81611 | -9.11702 | 2008 ft | 184 kts | 21° |
| 2026-05-07 17:13 | 38.82851 | -9.11087 | 2407 ft | 202 kts | 21° |
| 2026-05-07 17:14 | 38.84153 | -9.10123 | 2777 ft | 229 kts | 28° |
| 2026-05-07 17:14 | 38.85547 | -9.08960 | 3219 ft | 254 kts | 30° |
| 2026-05-07 17:14 | 38.87070 | -9.07675 | 3848 ft | 268 kts | 32° |
| 2026-05-07 17:14 | 38.88658 | -9.06352 | 4651 ft | 277 kts | 32° |
| 2026-05-07 17:15 | 38.90220 | -9.04850 | 5412 ft | 284 kts | 45° |
| 2026-05-07 17:15 | 38.91667 | -9.03099 | 6337 ft | 287 kts | 46° |
| 2026-05-07 17:15 | 38.93143 | -9.01348 | 7134 ft | 292 kts | 45° |
| 2026-05-07 17:15 | 38.94657 | -8.99575 | 7989 ft | 296 kts | 44° |
| 2026-05-07 17:16 | 38.96191 | -8.97792 | 8830 ft | 299 kts | 44° |
| 2026-05-07 17:16 | 38.97747 | -8.95984 | 9648 ft | 303 kts | 44° |
| 2026-05-07 17:16 | 38.99333 | -8.94140 | 10241 ft | 316 kts | 44° |
| 2026-05-07 17:16 | 39.01019 | -8.92171 | 10468 ft | 339 kts | 44° |
| 2026-05-07 17:17 | 39.02788 | -8.90100 | 10868 ft | 354 kts | 44° |
| 2026-05-07 17:17 | 39.04627 | -8.87947 | 11531 ft | 359 kts | 44° |
| 2026-05-07 17:17 | 39.06493 | -8.85761 | 12234 ft | 364 kts | 44° |
| 2026-05-07 17:17 | 39.08375 | -8.83559 | 12976 ft | 367 kts | 44° |
| 2026-05-07 17:18 | 39.10255 | -8.81360 | 13650 ft | 371 kts | 44° |
| 2026-05-07 17:18 | 39.12174 | -8.79113 | 14299 ft | 374 kts | 43° |
| 2026-05-07 17:18 | 39.14111 | -8.76839 | 14874 ft | 378 kts | 44° |
| 2026-05-07 17:18 | 39.16067 | -8.74538 | 15496 ft | 381 kts | 44° |
| 2026-05-07 17:19 | 39.17914 | -8.72053 | 16061 ft | 385 kts | 50° |
| 2026-05-07 17:19 | 39.19700 | -8.69447 | 16631 ft | 389 kts | 49° |
| 2026-05-07 17:19 | 39.21482 | -8.66842 | 17166 ft | 395 kts | 49° |
| 2026-05-07 17:19 | 39.23313 | -8.64161 | 17775 ft | 397 kts | 49° |
| 2026-05-07 17:20 | 39.25153 | -8.61459 | 18307 ft | 402 kts | 49° |
| 2026-05-07 17:20 | 39.27012 | -8.58727 | 18821 ft | 405 kts | 49° |
| 2026-05-07 17:20 | 39.28858 | -8.56012 | 19301 ft | 409 kts | 49° |
| 2026-05-07 17:20 | 39.30741 | -8.53238 | 19792 ft | 412 kts | 49° |
| 2026-05-07 17:21 | 39.32639 | -8.50446 | 20266 ft | 416 kts | 49° |
| 2026-05-07 17:21 | 39.34561 | -8.47622 | 20721 ft | 419 kts | 49° |
| 2026-05-07 17:21 | 39.36499 | -8.44771 | 21167 ft | 424 kts | 49° |
| 2026-05-07 17:21 | 39.38430 | -8.41922 | 21603 ft | 428 kts | 49° |
| 2026-05-07 17:22 | 39.40400 | -8.39010 | 22036 ft | 432 kts | 49° |
| 2026-05-07 17:22 | 39.42386 | -8.36070 | 22462 ft | 436 kts | 49° |
| 2026-05-07 17:22 | 39.44395 | -8.33100 | 22896 ft | 439 kts | 48° |
| 2026-05-07 17:22 | 39.46408 | -8.30121 | 23377 ft | 441 kts | 48° |
| 2026-05-07 17:23 | 39.48438 | -8.27114 | 23736 ft | 444 kts | 48° |
| 2026-05-07 17:23 | 39.50485 | -8.24093 | 24099 ft | 447 kts | 47° |
| 2026-05-07 17:23 | 39.52617 | -8.21146 | 24511 ft | 448 kts | 44° |
| 2026-05-07 17:23 | 39.54794 | -8.18335 | 24918 ft | 448 kts | 42° |
| 2026-05-07 17:24 | 39.57056 | -8.15529 | 25281 ft | 450 kts | 41° |
| 2026-05-07 17:24 | 39.59345 | -8.12729 | 25622 ft | 453 kts | 41° |
| 2026-05-07 17:24 | 39.61642 | -8.09900 | 25972 ft | 456 kts | 41° |
| 2026-05-07 17:24 | 39.63932 | -8.07035 | 26310 ft | 458 kts | 42° |
| 2026-05-07 17:25 | 39.66220 | -8.04127 | 26641 ft | 461 kts | 42° |
| 2026-05-07 17:25 | 39.68483 | -8.01220 | 26971 ft | 464 kts | 42° |
| 2026-05-07 17:25 | 39.70778 | -7.98258 | 27298 ft | 466 kts | 42° |
| 2026-05-07 17:25 | 39.73090 | -7.95264 | 27627 ft | 469 kts | 42° |
| 2026-05-07 17:26 | 39.75418 | -7.92254 | 27960 ft | 472 kts | 42° |
| 2026-05-07 17:26 | 39.77722 | -7.89281 | 28290 ft | 473 kts | 42° |
| 2026-05-07 17:26 | 39.80075 | -7.86255 | 28613 ft | 476 kts | 42° |
| 2026-05-07 17:26 | 39.82437 | -7.83217 | 28902 ft | 478 kts | 41° |
| 2026-05-07 17:27 | 39.84812 | -7.80160 | 29204 ft | 480 kts | 41° |
| 2026-05-07 17:27 | 39.87193 | -7.77088 | 29474 ft | 483 kts | 41° |
| 2026-05-07 17:27 | 39.89581 | -7.73997 | 29739 ft | 485 kts | 41° |
| 2026-05-07 17:27 | 39.91982 | -7.70885 | 29985 ft | 488 kts | 41° |
| 2026-05-07 17:28 | 39.94362 | -7.67801 | 30226 ft | 489 kts | 41° |
| 2026-05-07 17:28 | 39.96788 | -7.64657 | 30460 ft | 491 kts | 41° |
| 2026-05-07 17:28 | 39.99229 | -7.61492 | 30684 ft | 493 kts | 41° |
| 2026-05-07 17:28 | 40.01661 | -7.58332 | 30958 ft | 494 kts | 41° |
| 2026-05-07 17:29 | 40.04066 | -7.55206 | 31324 ft | 493 kts | 41° |
| 2026-05-07 17:29 | 40.06502 | -7.52036 | 31683 ft | 492 kts | 41° |
| 2026-05-07 17:29 | 40.08930 | -7.48873 | 32015 ft | 492 kts | 41° |
| 2026-05-07 17:29 | 40.11346 | -7.45719 | 32348 ft | 491 kts | 41° |
| 2026-05-07 17:30 | 40.13761 | -7.42561 | 32657 ft | 490 kts | 41° |
| 2026-05-07 17:30 | 40.16143 | -7.39443 | 32981 ft | 490 kts | 40° |
| 2026-05-07 17:30 | 40.18552 | -7.36288 | 33299 ft | 489 kts | 40° |
| 2026-05-07 17:30 | 40.20960 | -7.33130 | 33634 ft | 489 kts | 40° |
| 2026-05-07 17:31 | 40.23362 | -7.29982 | 33944 ft | 488 kts | 40° |
| 2026-05-07 17:31 | 40.25760 | -7.26836 | 34230 ft | 488 kts | 40° |
| 2026-05-07 17:31 | 40.28161 | -7.23686 | 34510 ft | 487 kts | 40° |
| 2026-05-07 17:31 | 40.30555 | -7.20538 | 34799 ft | 486 kts | 40° |
| 2026-05-07 17:32 | 40.32940 | -7.17400 | 35080 ft | 485 kts | 40° |
| 2026-05-07 17:32 | 40.35319 | -7.14266 | 35332 ft | 485 kts | 40° |
| 2026-05-07 17:32 | 40.37670 | -7.11161 | 35565 ft | 485 kts | 40° |
| 2026-05-07 17:32 | 40.39281 | -7.09029 | 35720 ft | 485 kts | 40° |
| 2026-05-07 17:33 | 40.42425 | -7.04861 | 35852 ft | 484 kts | 40° |
| 2026-05-07 17:33 | 40.44797 | -7.01717 | 35861 ft | 483 kts | 40° |
| 2026-05-07 17:33 | 40.49494 | -6.95485 | 35857 ft | 482 kts | 40° |
| 2026-05-07 17:34 | 40.54217 | -6.89197 | 35857 ft | 482 kts | 40° |
| 2026-05-07 17:34 | 40.58904 | -6.82950 | 35865 ft | 481 kts | 40° |
| 2026-05-07 17:35 | 40.63627 | -6.76656 | 35860 ft | 480 kts | 40° |
| 2026-05-07 17:35 | 40.68289 | -6.70413 | 35859 ft | 480 kts | 40° |
| 2026-05-07 17:36 | 40.72980 | -6.64122 | 35874 ft | 480 kts | 40° |
| 2026-05-07 17:36 | 40.77666 | -6.57818 | 35872 ft | 480 kts | 40° |
| 2026-05-07 17:37 | 40.82319 | -6.51556 | 35871 ft | 479 kts | 40° |
| 2026-05-07 17:37 | 40.86988 | -6.45251 | 35879 ft | 479 kts | 40° |
| 2026-05-07 17:38 | 40.91640 | -6.38960 | 35881 ft | 478 kts | 40° |
| 2026-05-07 17:38 | 40.96271 | -6.32690 | 35901 ft | 478 kts | 40° |
| 2026-05-07 17:39 | 41.00954 | -6.26428 | 35890 ft | 476 kts | 38° |
| 2026-05-07 17:39 | 41.05853 | -6.20542 | 35886 ft | 474 kts | 35° |
| 2026-05-07 17:40 | 41.10837 | -6.14819 | 35886 ft | 474 kts | 35° |
| 2026-05-07 17:40 | 41.15774 | -6.09018 | 35872 ft | 474 kts | 36° |
| 2026-05-07 17:41 | 41.20643 | -6.03160 | 35907 ft | 475 kts | 36° |
| 2026-05-07 17:41 | 41.25532 | -5.97239 | 35897 ft | 474 kts | 36° |
| 2026-05-07 17:42 | 41.30426 | -5.91327 | 35898 ft | 474 kts | 36° |
| 2026-05-07 17:42 | 41.35297 | -5.85463 | 35895 ft | 474 kts | 36° |
| 2026-05-07 17:43 | 41.40196 | -5.79549 | 35895 ft | 474 kts | 36° |
| 2026-05-07 17:43 | 41.45051 | -5.73665 | 35910 ft | 475 kts | 36° |
| 2026-05-07 17:44 | 41.49940 | -5.67733 | 35919 ft | 474 kts | 36° |
| 2026-05-07 17:44 | 41.55247 | -5.62785 | 35917 ft | 457 kts | 18° |
| 2026-05-07 17:45 | 41.61013 | -5.59493 | 35912 ft | 452 kts | 15° |
| 2026-05-07 17:45 | 41.66821 | -5.56222 | 35923 ft | 452 kts | 16° |
| 2026-05-07 17:46 | 41.72613 | -5.52936 | 35916 ft | 451 kts | 16° |
| 2026-05-07 17:46 | 41.78390 | -5.49652 | 35909 ft | 450 kts | 16° |
| 2026-05-07 17:47 | 41.84123 | -5.46395 | 35906 ft | 449 kts | 16° |
| 2026-05-07 17:47 | 41.89892 | -5.43125 | 35916 ft | 449 kts | 16° |
| 2026-05-07 17:48 | 41.94685 | -5.40398 | 35915 ft | 449 kts | 16° |
| 2026-05-07 17:48 | 42.01384 | -5.36584 | 35910 ft | 449 kts | 16° |
| 2026-05-07 17:49 | 42.06202 | -5.33832 | 35905 ft | 448 kts | 16° |
| 2026-05-07 17:49 | 42.11913 | -5.30567 | 35928 ft | 448 kts | 17° |
| 2026-05-07 17:50 | 42.17660 | -5.27264 | 35908 ft | 448 kts | 17° |
| 2026-05-07 17:50 | 42.23404 | -5.23946 | 35903 ft | 449 kts | 17° |
| 2026-05-07 17:51 | 42.29116 | -5.20651 | 35909 ft | 449 kts | 18° |
| 2026-05-07 17:51 | 42.34869 | -5.17330 | 35910 ft | 449 kts | 18° |
| 2026-05-07 17:52 | 42.40629 | -5.14007 | 35908 ft | 449 kts | 18° |
| 2026-05-07 17:52 | 42.46348 | -5.10694 | 35901 ft | 449 kts | 18° |
| 2026-05-07 17:53 | 42.52103 | -5.07355 | 35911 ft | 449 kts | 18° |
| 2026-05-07 17:53 | 42.57854 | -5.04010 | 35908 ft | 449 kts | 18° |
| 2026-05-07 17:54 | 42.63601 | -5.00652 | 35916 ft | 449 kts | 18° |
| 2026-05-07 17:54 | 42.69317 | -4.97318 | 35915 ft | 449 kts | 18° |
| 2026-05-07 17:55 | 42.75070 | -4.93959 | 35914 ft | 449 kts | 19° |
| 2026-05-07 17:55 | 42.80818 | -4.90581 | 35910 ft | 450 kts | 19° |
| 2026-05-07 17:56 | 42.86528 | -4.87209 | 35911 ft | 450 kts | 19° |
| 2026-05-07 17:56 | 42.92280 | -4.83812 | 35922 ft | 450 kts | 19° |
| 2026-05-07 17:57 | 42.97108 | -4.80974 | 35915 ft | 450 kts | 19° |
| 2026-05-07 17:57 | 43.03809 | -4.77018 | 35910 ft | 451 kts | 19° |
| 2026-05-07 17:58 | 43.09536 | -4.73619 | 35908 ft | 451 kts | 19° |
| 2026-05-07 17:58 | 43.15291 | -4.70199 | 35923 ft | 451 kts | 19° |
| 2026-05-07 17:59 | 43.21079 | -4.66759 | 35916 ft | 450 kts | 19° |
| 2026-05-07 17:59 | 43.26789 | -4.63354 | 35908 ft | 450 kts | 19° |
| 2026-05-07 18:00 | 43.32532 | -4.59917 | 35908 ft | 450 kts | 19° |
| 2026-05-07 18:00 | 43.38276 | -4.56471 | 35914 ft | 449 kts | 20° |
| 2026-05-07 18:01 | 43.43982 | -4.53042 | 35899 ft | 450 kts | 20° |
| 2026-05-07 18:01 | 43.49725 | -4.49593 | 35890 ft | 450 kts | 19° |
| 2026-05-07 18:02 | 43.58346 | -4.44404 | 35881 ft | 451 kts | 20° |
| 2026-05-07 18:03 | 43.64078 | -4.40940 | 35874 ft | 452 kts | 20° |
| 2026-05-07 18:03 | 43.69847 | -4.37446 | 35877 ft | 452 kts | 20° |
| 2026-05-07 18:04 | 43.75587 | -4.33957 | 35890 ft | 453 kts | 20° |
| 2026-05-07 18:04 | 43.81369 | -4.30433 | 35889 ft | 453 kts | 20° |
| 2026-05-07 18:05 | 43.87157 | -4.26914 | 35890 ft | 454 kts | 20° |
| 2026-05-07 18:05 | 43.92912 | -4.23403 | 35892 ft | 454 kts | 20° |
| 2026-05-07 18:06 | 43.98701 | -4.19856 | 35902 ft | 455 kts | 21° |
| 2026-05-07 18:06 | 44.04493 | -4.16293 | 35903 ft | 455 kts | 21° |
| 2026-05-07 18:07 | 44.10297 | -4.12720 | 35905 ft | 455 kts | 21° |
| 2026-05-07 18:07 | 44.16097 | -4.09152 | 35922 ft | 455 kts | 21° |
| 2026-05-07 18:08 | 44.21851 | -4.05605 | 35918 ft | 455 kts | 21° |
| 2026-05-07 18:08 | 44.27650 | -4.02025 | 35920 ft | 455 kts | 21° |
| 2026-05-07 18:09 | 44.33425 | -3.98346 | 35916 ft | 457 kts | 26° |
| 2026-05-07 18:09 | 44.38962 | -3.93950 | 35920 ft | 457 kts | 27° |
| 2026-05-07 18:10 | 44.44475 | -3.89596 | 35922 ft | 457 kts | 27° |
| 2026-05-07 18:10 | 44.49995 | -3.85226 | 35923 ft | 457 kts | 27° |
| 2026-05-07 18:11 | 44.55530 | -3.80822 | 35938 ft | 457 kts | 27° |
| 2026-05-07 18:11 | 44.61076 | -3.76402 | 35918 ft | 458 kts | 27° |
| 2026-05-07 18:12 | 44.66595 | -3.71995 | 35914 ft | 458 kts | 27° |
| 2026-05-07 18:12 | 44.72157 | -3.67544 | 35920 ft | 459 kts | 27° |
| 2026-05-07 18:13 | 44.77688 | -3.63117 | 35919 ft | 459 kts | 27° |
| 2026-05-07 18:13 | 44.83256 | -3.58635 | 35926 ft | 460 kts | 27° |
| 2026-05-07 18:14 | 44.88820 | -3.54146 | 35928 ft | 460 kts | 27° |
| 2026-05-07 18:14 | 44.94345 | -3.49678 | 35936 ft | 460 kts | 27° |
| 2026-05-07 18:15 | 44.99898 | -3.45176 | 35932 ft | 460 kts | 27° |
| 2026-05-07 18:15 | 45.05459 | -3.40663 | 35926 ft | 460 kts | 28° |
| 2026-05-07 18:16 | 45.11028 | -3.36133 | 35924 ft | 461 kts | 28° |
| 2026-05-07 18:16 | 45.16603 | -3.31596 | 35935 ft | 462 kts | 28° |
| 2026-05-07 18:17 | 45.22167 | -3.27059 | 35941 ft | 462 kts | 28° |
| 2026-05-07 18:17 | 45.27713 | -3.22523 | 35943 ft | 462 kts | 28° |
| 2026-05-07 18:18 | 45.33285 | -3.17943 | 35943 ft | 462 kts | 28° |
| 2026-05-07 18:18 | 45.38852 | -3.13368 | 35954 ft | 462 kts | 28° |
| 2026-05-07 18:19 | 45.44387 | -3.08807 | 35942 ft | 462 kts | 28° |
| 2026-05-07 18:19 | 45.49970 | -3.04194 | 35940 ft | 463 kts | 28° |
| 2026-05-07 18:20 | 45.55553 | -2.99568 | 35950 ft | 464 kts | 28° |
| 2026-05-07 18:20 | 45.61107 | -2.94946 | 35948 ft | 464 kts | 28° |
| 2026-05-07 18:21 | 45.66707 | -2.90287 | 35951 ft | 464 kts | 28° |
| 2026-05-07 18:21 | 45.72262 | -2.85663 | 35952 ft | 464 kts | 28° |
| 2026-05-07 18:22 | 45.77849 | -2.80992 | 35961 ft | 465 kts | 29° |
| 2026-05-07 18:22 | 45.83440 | -2.76312 | 35958 ft | 465 kts | 28° |
| 2026-05-07 18:23 | 45.89032 | -2.71620 | 35945 ft | 466 kts | 29° |
| 2026-05-07 18:23 | 45.94604 | -2.66930 | 35952 ft | 467 kts | 29° |
| 2026-05-07 18:24 | 46.00219 | -2.62188 | 35955 ft | 467 kts | 29° |
| 2026-05-07 18:24 | 46.05831 | -2.57440 | 35956 ft | 468 kts | 29° |
| 2026-05-07 18:25 | 46.11421 | -2.52700 | 35962 ft | 468 kts | 29° |
| 2026-05-07 18:25 | 46.17017 | -2.47980 | 35971 ft | 467 kts | 26° |
| 2026-05-07 18:26 | 46.22948 | -2.44138 | 35978 ft | 466 kts | 22° |
| 2026-05-07 18:26 | 46.28905 | -2.40392 | 35979 ft | 466 kts | 22° |
| 2026-05-07 18:27 | 46.34860 | -2.36639 | 35966 ft | 467 kts | 22° |
| 2026-05-07 18:27 | 46.40808 | -2.32882 | 35962 ft | 468 kts | 22° |
| 2026-05-07 18:28 | 46.46781 | -2.29104 | 35961 ft | 468 kts | 22° |
| 2026-05-07 18:28 | 46.52750 | -2.25321 | 35959 ft | 468 kts | 22° |
| 2026-05-07 18:29 | 46.58690 | -2.21548 | 35970 ft | 468 kts | 22° |
| 2026-05-07 18:29 | 46.64683 | -2.17729 | 35973 ft | 468 kts | 22° |
| 2026-05-07 18:30 | 46.70625 | -2.13937 | 35978 ft | 468 kts | 22° |
| 2026-05-07 18:30 | 46.76599 | -2.10109 | 35973 ft | 468 kts | 22° |
| 2026-05-07 18:31 | 46.82561 | -2.06270 | 35974 ft | 468 kts | 22° |
| 2026-05-07 18:31 | 46.88524 | -2.02417 | 35969 ft | 469 kts | 22° |
| 2026-05-07 18:32 | 46.94478 | -1.98574 | 35969 ft | 470 kts | 22° |
| 2026-05-07 18:32 | 47.00473 | -1.94707 | 35968 ft | 470 kts | 22° |
| 2026-05-07 18:33 | 47.06458 | -1.90835 | 35970 ft | 470 kts | 22° |
| 2026-05-07 18:33 | 47.11437 | -1.87593 | 35973 ft | 470 kts | 22° |
| 2026-05-07 18:34 | 47.17234 | -1.83133 | 35986 ft | 471 kts | 35° |
| 2026-05-07 18:34 | 47.22490 | -1.77330 | 35986 ft | 472 kts | 36° |
| 2026-05-07 18:35 | 47.27709 | -1.71552 | 35985 ft | 472 kts | 36° |
| 2026-05-07 18:35 | 47.32947 | -1.65732 | 35972 ft | 472 kts | 39° |
| 2026-05-07 18:36 | 47.37434 | -1.58669 | 35968 ft | 472 kts | 52° |